Terminal Aerodrome Forecast
Issued by NWS

Home | Current Version | Previous Version | Text Only | Print | Product List | Glossary On
Versions: 1 2 3 4 5 6 7 8 9 10 11 12 13 14 15 16 17
000
FTUS43 KICT 011700
TAFHUT
TAF
KHUT 011740Z 0118/0218 17007KT P6SM SCT030
     FM012000 05007KT P6SM SCT035
     FM020300 05008KT P6SM VCTS SCT040CB
     FM020900 17010KT P6SM VCTS SCT015 BKN040CB
     FM021200 33014KT P6SM VCTS SCT015 BKN030CB=

USA.gov is the U.S. government's official web portal to all federal, state and local government web resources and services.